Alfa — ER2659 — position and weather

sailwx.info

Track history (hours):
 
Tides and Currents Weather Stations Pressure Air Temp Water Temp Dewpoint Dewpoint Depression Visibility Wind Speed Wind Dir Waves Ship Positions

Alfa

Last reported at 2018-Jun-13 23:59 UTC. Time now 2018-Jun-19 04:42 UTC.
Position N 40°49' E 029°09'.

Length 88 m; draft 3.6 m.

Type: Cargo ship. MMSI: 214182659.

Date/timePositionNaut miles runAvg speedWind from/ knotsBaromVisibWave heightAir tempDewpointWater temp
2018-Jun-13 23:59N 40°49' E 029°09'9 8.4
2018-Jun-13 22:54N 40°52' E 028°57'4 8.4
2018-Jun-13 22:24N 40°56' E 028°56'5 9.7
2018-Jun-13 21:55N 40°60' E 028°60'6 9.8
2018-Jun-13 21:18N 41°05' E 029°04'3 8.6
2018-Jun-13 20:57N 41°08' E 029°04'14 8.7
2018-Jun-13 19:21N 41°21' E 029°11'7 8.7
2018-Jun-13 18:30N 41°26' E 029°18'4 8.5
2018-Jun-13 17:59N 41°29' E 029°22'4 8.7
2018-Jun-13 17:30N 41°32' E 029°26'9 8.7
2018-Jun-13 16:24N 41°38' E 029°36'4 8.8
2018-Jun-13 15:59N 41°40' E 029°40'7 8.9
2018-Jun-13 15:10N 41°45' E 029°47'1 9.1
2018-Jun-13 15:00N 41°46' E 029°49'5 9.0
2018-Jun-13 14:30N 41°50' E 029°53'4 9.0
2018-Jun-13 14:00N 41°53' E 029°57'5 9.1
2018-Jun-13 13:30N 41°56' E 030°02'6 9.1
2018-Jun-13 12:49N 42°00' E 030°08'3 9.1
2018-Jun-13 12:30N 42°02' E 030°11'20 9.2
2018-Jun-13 10:22N 42°15' E 030°31'4 9.4
2018-Jun-13 09:59N 42°17' E 030°34'6 9.7
2018-Jun-13 09:23N 42°21' E 030°40'4 8.8
2018-Jun-13 08:55N 42°24' E 030°45'4 9.2
2018-Jun-13 08:30N 42°26' E 030°49'5 9.1
2018-Jun-13 08:00N 42°29' E 030°53'20 9.0
2018-Jun-13 05:45N 42°43' E 031°13'7 9.0
2018-Jun-13 05:00N 42°48' E 031°20'4 8.9
2018-Jun-13 04:30N 42°50' E 031°25'24 8.8
2018-Jun-13 01:47N 43°06' E 031°49'3 8.9
2018-Jun-13 01:28N 43°08' E 031°52'4 8.9
2018-Jun-13 00:59N 43°11' E 031°56'8 9.0
2018-Jun-13 00:04N 43°17' E 032°05'222 7.8
2018-Jun-11 19:31N 45°16' E 036°27'3 7.5
2018-Jun-11 19:10N 45°18' E 036°29'1 9.3
2018-Jun-11 19:00N 45°19' E 036°31'5 9.5
2018-Jun-11 18:30N 45°20' E 036°37'4 7.9
2018-Jun-11 18:00N 45°24' E 036°40'3 6.3
2018-Jun-11 17:30N 45°27' E 036°39'2 1.5
2018-Jun-11 16:06N 45°28' E 036°37'0 0.0
2018-Jun-11 15:56N 45°28' E 036°37'0 0.0
2018-Jun-11 15:29N 45°28' E 036°37'0 0.0
2018-Jun-11 14:57N 45°28' E 036°37'0 0.9
2018-Jun-11 14:28N 45°28' E 036°38'4 8.0
2018-Jun-11 13:56N 45°30' E 036°43'  
Track history (hours):
 
Tides and Currents Weather Stations Pressure Air Temp Water Temp Dewpoint Dewpoint Depression Visibility Wind Speed Wind Dir Waves Ship Positions

Alfa

Last reported at 2018-Jun-13 23:59 UTC. Time now 2018-Jun-19 04:42 UTC.
Position N 40°49' E 029°09'.

Length 88 m; draft 3.6 m.

Type: Cargo ship. MMSI: 214182659.

Date/timePositionNaut miles runAvg speedWind from/ knotsBaromVisibWave heightAir tempDewpointWater temp
2018-Jun-13 23:59N 40°49' E 029°09'9 8.4
2018-Jun-13 22:54N 40°52' E 028°57'4 8.4
2018-Jun-13 22:24N 40°56' E 028°56'5 9.7
2018-Jun-13 21:55N 40°60' E 028°60'6 9.8
2018-Jun-13 21:18N 41°05' E 029°04'3 8.6
2018-Jun-13 20:57N 41°08' E 029°04'14 8.7
2018-Jun-13 19:21N 41°21' E 029°11'7 8.7
2018-Jun-13 18:30N 41°26' E 029°18'4 8.5
2018-Jun-13 17:59N 41°29' E 029°22'4 8.7
2018-Jun-13 17:30N 41°32' E 029°26'9 8.7
2018-Jun-13 16:24N 41°38' E 029°36'4 8.8
2018-Jun-13 15:59N 41°40' E 029°40'7 8.9
2018-Jun-13 15:10N 41°45' E 029°47'1 9.1
2018-Jun-13 15:00N 41°46' E 029°49'5 9.0
2018-Jun-13 14:30N 41°50' E 029°53'4 9.0
2018-Jun-13 14:00N 41°53' E 029°57'5 9.1
2018-Jun-13 13:30N 41°56' E 030°02'6 9.1
2018-Jun-13 12:49N 42°00' E 030°08'3 9.1
2018-Jun-13 12:30N 42°02' E 030°11'20 9.2
2018-Jun-13 10:22N 42°15' E 030°31'4 9.4
2018-Jun-13 09:59N 42°17' E 030°34'6 9.7
2018-Jun-13 09:23N 42°21' E 030°40'4 8.8
2018-Jun-13 08:55N 42°24' E 030°45'4 9.2
2018-Jun-13 08:30N 42°26' E 030°49'5 9.1
2018-Jun-13 08:00N 42°29' E 030°53'20 9.0
2018-Jun-13 05:45N 42°43' E 031°13'7 9.0
2018-Jun-13 05:00N 42°48' E 031°20'4 8.9
2018-Jun-13 04:30N 42°50' E 031°25'24 8.8
2018-Jun-13 01:47N 43°06' E 031°49'3 8.9
2018-Jun-13 01:28N 43°08' E 031°52'4 8.9
2018-Jun-13 00:59N 43°11' E 031°56'8 9.0
2018-Jun-13 00:04N 43°17' E 032°05'222 7.8
2018-Jun-11 19:31N 45°16' E 036°27'3 7.5
2018-Jun-11 19:10N 45°18' E 036°29'1 9.3
2018-Jun-11 19:00N 45°19' E 036°31'5 9.5
2018-Jun-11 18:30N 45°20' E 036°37'4 7.9
2018-Jun-11 18:00N 45°24' E 036°40'3 6.3
2018-Jun-11 17:30N 45°27' E 036°39'2 1.5
2018-Jun-11 16:06N 45°28' E 036°37'0 0.0
2018-Jun-11 15:56N 45°28' E 036°37'0 0.0
2018-Jun-11 15:29N 45°28' E 036°37'0 0.0
2018-Jun-11 14:57N 45°28' E 036°37'0 0.9
2018-Jun-11 14:28N 45°28' E 036°38'4 8.0
2018-Jun-11 13:56N 45°30' E 036°43'  

Dump ship's entire track history